sensor_id;sensor_type;location;lat;lon;timestamp;P1;durP1;ratioP1;P2;durP2;ratioP2
4074;SDS011;2052;53.522;9.806;2023-08-06T00:02:14;4.40;;;2.80;;
4074;SDS011;2052;53.522;9.806;2023-08-06T00:04:40;4.27;;;2.40;;
4074;SDS011;2052;53.522;9.806;2023-08-06T00:07:07;3.00;;;2.70;;
4074;SDS011;2052;53.522;9.806;2023-08-06T00:09:35;3.10;;;2.57;;
4074;SDS011;2052;53.522;9.806;2023-08-06T00:12:02;5.20;;;2.37;;
4074;SDS011;2052;53.522;9.806;2023-08-06T00:14:30;3.30;;;2.73;;
4074;SDS011;2052;53.522;9.806;2023-08-06T00:16:57;3.57;;;3.27;;
4074;SDS011;2052;53.522;9.806;2023-08-06T00:19:25;3.70;;;2.50;;
4074;SDS011;2052;53.522;9.806;2023-08-06T00:21:52;2.93;;;2.53;;
4074;SDS011;2052;53.522;9.806;2023-08-06T00:24:22;3.47;;;2.97;;
4074;SDS011;2052;53.522;9.806;2023-08-06T00:26:51;2.70;;;2.50;;
4074;SDS011;2052;53.522;9.806;2023-08-06T00:29:20;4.23;;;3.00;;
4074;SDS011;2052;53.522;9.806;2023-08-06T00:31:46;4.10;;;3.30;;
4074;SDS011;2052;53.522;9.806;2023-08-06T00:34:13;4.43;;;3.10;;
4074;SDS011;2052;53.522;9.806;2023-08-06T00:36:40;7.23;;;4.70;;
4074;SDS011;2052;53.522;9.806;2023-08-06T00:39:06;4.77;;;3.40;;
4074;SDS011;2052;53.522;9.806;2023-08-06T00:41:33;3.50;;;3.17;;
4074;SDS011;2052;53.522;9.806;2023-08-06T00:44:01;6.37;;;3.47;;
4074;SDS011;2052;53.522;9.806;2023-08-06T00:46:27;4.80;;;3.20;;
4074;SDS011;2052;53.522;9.806;2023-08-06T00:48:54;6.00;;;3.90;;
4074;SDS011;2052;53.522;9.806;2023-08-06T00:51:21;6.10;;;3.70;;
4074;SDS011;2052;53.522;9.806;2023-08-06T00:53:50;4.50;;;3.17;;
4074;SDS011;2052;53.522;9.806;2023-08-06T00:56:16;4.00;;;3.13;;
4074;SDS011;2052;53.522;9.806;2023-08-06T00:58:43;4.83;;;3.50;;
4074;SDS011;2052;53.522;9.806;2023-08-06T01:01:12;7.03;;;3.93;;
4074;SDS011;2052;53.522;9.806;2023-08-06T01:03:38;4.10;;;3.70;;
4074;SDS011;2052;53.522;9.806;2023-08-06T01:06:05;4.23;;;3.80;;
4074;SDS011;2052;53.522;9.806;2023-08-06T01:08:37;5.30;;;4.30;;
4074;SDS011;2052;53.522;9.806;2023-08-06T01:11:14;3.97;;;3.23;;
4074;SDS011;2052;53.522;9.806;2023-08-06T01:13:45;5.67;;;4.20;;
4074;SDS011;2052;53.522;9.806;2023-08-06T01:16:16;5.57;;;4.20;;
4074;SDS011;2052;53.522;9.806;2023-08-06T01:18:43;6.47;;;3.73;;
4074;SDS011;2052;53.522;9.806;2023-08-06T01:21:15;5.90;;;4.20;;
4074;SDS011;2052;53.522;9.806;2023-08-06T01:23:45;9.73;;;4.40;;
4074;SDS011;2052;53.522;9.806;2023-08-06T01:26:13;5.70;;;4.47;;
4074;SDS011;2052;53.522;9.806;2023-08-06T01:28:46;6.27;;;4.73;;
4074;SDS011;2052;53.522;9.806;2023-08-06T01:31:15;8.27;;;4.47;;
4074;SDS011;2052;53.522;9.806;2023-08-06T01:33:45;6.13;;;5.17;;
4074;SDS011;2052;53.522;9.806;2023-08-06T01:36:12;7.40;;;4.63;;
4074;SDS011;2052;53.522;9.806;2023-08-06T01:38:42;6.83;;;5.10;;
4074;SDS011;2052;53.522;9.806;2023-08-06T01:41:08;9.57;;;6.87;;
4074;SDS011;2052;53.522;9.806;2023-08-06T01:43:35;7.47;;;5.53;;
4074;SDS011;2052;53.522;9.806;2023-08-06T01:46:02;7.27;;;5.10;;
4074;SDS011;2052;53.522;9.806;2023-08-06T01:48:29;5.90;;;4.80;;
4074;SDS011;2052;53.522;9.806;2023-08-06T01:51:04;8.47;;;5.63;;
4074;SDS011;2052;53.522;9.806;2023-08-06T01:53:33;8.20;;;5.90;;
4074;SDS011;2052;53.522;9.806;2023-08-06T01:55:59;7.80;;;5.30;;
4074;SDS011;2052;53.522;9.806;2023-08-06T01:58:26;7.13;;;5.20;;
4074;SDS011;2052;53.522;9.806;2023-08-06T02:00:53;9.23;;;6.00;;
4074;SDS011;2052;53.522;9.806;2023-08-06T02:03:19;7.83;;;5.20;;
4074;SDS011;2052;53.522;9.806;2023-08-06T02:05:46;8.23;;;5.40;;
4074;SDS011;2052;53.522;9.806;2023-08-06T02:08:13;9.03;;;5.17;;
4074;SDS011;2052;53.522;9.806;2023-08-06T02:10:41;10.17;;;5.77;;
4074;SDS011;2052;53.522;9.806;2023-08-06T02:13:07;11.43;;;5.90;;
4074;SDS011;2052;53.522;9.806;2023-08-06T02:15:34;7.33;;;5.67;;
4074;SDS011;2052;53.522;9.806;2023-08-06T02:18:02;10.40;;;5.20;;
4074;SDS011;2052;53.522;9.806;2023-08-06T02:20:29;9.80;;;6.47;;
4074;SDS011;2052;53.522;9.806;2023-08-06T02:22:56;6.00;;;4.80;;
4074;SDS011;2052;53.522;9.806;2023-08-06T02:25:23;8.03;;;5.23;;
4074;SDS011;2052;53.522;9.806;2023-08-06T02:27:52;7.73;;;5.30;;
4074;SDS011;2052;53.522;9.806;2023-08-06T02:30:19;9.50;;;5.03;;
4074;SDS011;2052;53.522;9.806;2023-08-06T02:32:46;10.73;;;5.70;;
4074;SDS011;2052;53.522;9.806;2023-08-06T02:35:13;8.83;;;5.13;;
4074;SDS011;2052;53.522;9.806;2023-08-06T02:37:40;8.27;;;6.07;;
4074;SDS011;2052;53.522;9.806;2023-08-06T02:40:07;5.90;;;4.80;;
4074;SDS011;2052;53.522;9.806;2023-08-06T02:42:34;7.40;;;5.73;;
4074;SDS011;2052;53.522;9.806;2023-08-06T02:45:03;8.33;;;6.03;;
4074;SDS011;2052;53.522;9.806;2023-08-06T02:47:31;8.77;;;5.50;;
4074;SDS011;2052;53.522;9.806;2023-08-06T02:49:58;7.30;;;5.00;;
4074;SDS011;2052;53.522;9.806;2023-08-06T02:52:24;9.23;;;5.40;;
4074;SDS011;2052;53.522;9.806;2023-08-06T02:54:51;8.87;;;5.80;;
4074;SDS011;2052;53.522;9.806;2023-08-06T02:57:18;7.87;;;5.43;;
4074;SDS011;2052;53.522;9.806;2023-08-06T02:59:44;7.70;;;5.93;;
4074;SDS011;2052;53.522;9.806;2023-08-06T03:02:12;9.73;;;6.00;;
4074;SDS011;2052;53.522;9.806;2023-08-06T03:04:39;11.20;;;6.60;;
4074;SDS011;2052;53.522;9.806;2023-08-06T03:07:06;11.83;;;6.67;;
4074;SDS011;2052;53.522;9.806;2023-08-06T03:09:32;11.60;;;6.00;;
4074;SDS011;2052;53.522;9.806;2023-08-06T03:11:59;12.07;;;6.73;;
4074;SDS011;2052;53.522;9.806;2023-08-06T03:14:27;11.20;;;6.83;;
4074;SDS011;2052;53.522;9.806;2023-08-06T03:16:54;7.10;;;5.20;;
4074;SDS011;2052;53.522;9.806;2023-08-06T03:19:22;9.27;;;6.00;;
4074;SDS011;2052;53.522;9.806;2023-08-06T03:21:48;5.77;;;5.17;;
4074;SDS011;2052;53.522;9.806;2023-08-06T03:24:15;8.27;;;6.70;;
4074;SDS011;2052;53.522;9.806;2023-08-06T03:26:41;7.53;;;5.83;;
4074;SDS011;2052;53.522;9.806;2023-08-06T03:29:08;12.20;;;6.10;;
4074;SDS011;2052;53.522;9.806;2023-08-06T03:31:39;6.70;;;5.27;;
4074;SDS011;2052;53.522;9.806;2023-08-06T03:34:07;9.73;;;5.87;;
4074;SDS011;2052;53.522;9.806;2023-08-06T03:36:35;9.10;;;6.47;;
4074;SDS011;2052;53.522;9.806;2023-08-06T03:39:01;7.40;;;5.60;;
4074;SDS011;2052;53.522;9.806;2023-08-06T03:41:28;9.97;;;6.83;;
4074;SDS011;2052;53.522;9.806;2023-08-06T03:43:54;9.20;;;6.10;;
4074;SDS011;2052;53.522;9.806;2023-08-06T03:46:21;8.43;;;6.00;;
4074;SDS011;2052;53.522;9.806;2023-08-06T03:48:48;10.30;;;5.97;;
4074;SDS011;2052;53.522;9.806;2023-08-06T03:51:15;11.13;;;5.93;;
4074;SDS011;2052;53.522;9.806;2023-08-06T03:53:43;8.50;;;5.83;;
4074;SDS011;2052;53.522;9.806;2023-08-06T03:56:09;11.03;;;6.30;;
4074;SDS011;2052;53.522;9.806;2023-08-06T03:58:36;11.87;;;6.40;;
4074;SDS011;2052;53.522;9.806;2023-08-06T04:01:03;7.53;;;6.10;;
4074;SDS011;2052;53.522;9.806;2023-08-06T04:03:30;9.13;;;6.87;;
4074;SDS011;2052;53.522;9.806;2023-08-06T04:05:56;10.10;;;6.17;;
4074;SDS011;2052;53.522;9.806;2023-08-06T04:08:23;15.73;;;6.90;;
4074;SDS011;2052;53.522;9.806;2023-08-06T04:10:52;11.10;;;5.83;;
4074;SDS011;2052;53.522;9.806;2023-08-06T04:13:20;8.07;;;5.83;;
4074;SDS011;2052;53.522;9.806;2023-08-06T04:16:01;10.33;;;6.10;;
4074;SDS011;2052;53.522;9.806;2023-08-06T04:18:30;9.33;;;6.73;;
4074;SDS011;2052;53.522;9.806;2023-08-06T04:20:57;10.07;;;6.60;;
4074;SDS011;2052;53.522;9.806;2023-08-06T04:23:24;7.27;;;5.70;;
4074;SDS011;2052;53.522;9.806;2023-08-06T04:28:35;10.80;;;7.00;;
4074;SDS011;2052;53.522;9.806;2023-08-06T04:31:02;10.77;;;6.40;;
4074;SDS011;2052;53.522;9.806;2023-08-06T04:33:28;12.90;;;7.20;;
4074;SDS011;2052;53.522;9.806;2023-08-06T04:35:55;12.03;;;7.20;;
4074;SDS011;2052;53.522;9.806;2023-08-06T04:38:23;8.07;;;5.70;;
4074;SDS011;2052;53.522;9.806;2023-08-06T04:40:50;9.47;;;6.43;;
4074;SDS011;2052;53.522;9.806;2023-08-06T04:43:18;10.53;;;6.17;;
4074;SDS011;2052;53.522;9.806;2023-08-06T04:45:46;11.50;;;6.50;;
4074;SDS011;2052;53.522;9.806;2023-08-06T04:48:13;13.37;;;6.60;;
4074;SDS011;2052;53.522;9.806;2023-08-06T04:50:42;9.37;;;6.40;;
4074;SDS011;2052;53.522;9.806;2023-08-06T04:53:09;16.40;;;6.57;;
4074;SDS011;2052;53.522;9.806;2023-08-06T04:55:36;30.87;;;7.93;;
4074;SDS011;2052;53.522;9.806;2023-08-06T04:58:03;11.57;;;6.30;;
4074;SDS011;2052;53.522;9.806;2023-08-06T05:00:31;10.70;;;6.17;;
4074;SDS011;2052;53.522;9.806;2023-08-06T05:02:58;9.30;;;7.00;;
4074;SDS011;2052;53.522;9.806;2023-08-06T05:05:25;12.87;;;6.30;;
4074;SDS011;2052;53.522;9.806;2023-08-06T05:07:54;11.47;;;6.90;;
4074;SDS011;2052;53.522;9.806;2023-08-06T05:10:21;6.63;;;5.67;;
4074;SDS011;2052;53.522;9.806;2023-08-06T05:12:48;9.67;;;6.97;;
4074;SDS011;2052;53.522;9.806;2023-08-06T05:15:14;7.50;;;5.83;;
4074;SDS011;2052;53.522;9.806;2023-08-06T05:17:42;9.90;;;6.67;;
4074;SDS011;2052;53.522;9.806;2023-08-06T05:20:09;8.43;;;5.93;;
4074;SDS011;2052;53.522;9.806;2023-08-06T05:22:37;13.37;;;6.00;;
4074;SDS011;2052;53.522;9.806;2023-08-06T05:25:04;8.13;;;6.07;;
4074;SDS011;2052;53.522;9.806;2023-08-06T05:27:31;9.37;;;5.90;;
4074;SDS011;2052;53.522;9.806;2023-08-06T05:29:58;9.70;;;5.80;;
4074;SDS011;2052;53.522;9.806;2023-08-06T05:32:26;7.47;;;5.63;;
4074;SDS011;2052;53.522;9.806;2023-08-06T05:34:54;7.67;;;6.00;;
4074;SDS011;2052;53.522;9.806;2023-08-06T05:37:21;9.37;;;5.70;;
4074;SDS011;2052;53.522;9.806;2023-08-06T05:39:47;7.40;;;5.20;;
4074;SDS011;2052;53.522;9.806;2023-08-06T05:42:14;11.53;;;6.00;;
4074;SDS011;2052;53.522;9.806;2023-08-06T05:44:40;6.70;;;5.20;;
4074;SDS011;2052;53.522;9.806;2023-08-06T05:47:07;7.27;;;4.87;;
4074;SDS011;2052;53.522;9.806;2023-08-06T05:49:34;6.73;;;5.17;;
4074;SDS011;2052;53.522;9.806;2023-08-06T05:52:02;7.30;;;5.10;;
4074;SDS011;2052;53.522;9.806;2023-08-06T05:54:31;9.70;;;5.30;;
4074;SDS011;2052;53.522;9.806;2023-08-06T05:56:59;7.50;;;6.03;;
4074;SDS011;2052;53.522;9.806;2023-08-06T05:59:26;9.40;;;5.20;;
4074;SDS011;2052;53.522;9.806;2023-08-06T06:01:52;9.50;;;4.93;;
4074;SDS011;2052;53.522;9.806;2023-08-06T06:04:20;6.90;;;5.10;;
4074;SDS011;2052;53.522;9.806;2023-08-06T06:06:47;8.67;;;5.60;;
4074;SDS011;2052;53.522;9.806;2023-08-06T06:09:15;10.20;;;5.57;;
4074;SDS011;2052;53.522;9.806;2023-08-06T06:11:42;7.57;;;4.80;;
4074;SDS011;2052;53.522;9.806;2023-08-06T06:14:08;7.80;;;5.47;;
4074;SDS011;2052;53.522;9.806;2023-08-06T06:16:35;9.97;;;6.37;;
4074;SDS011;2052;53.522;9.806;2023-08-06T06:19:02;8.33;;;5.07;;
4074;SDS011;2052;53.522;9.806;2023-08-06T06:21:30;11.03;;;6.20;;
4074;SDS011;2052;53.522;9.806;2023-08-06T06:23:56;15.13;;;5.47;;
4074;SDS011;2052;53.522;9.806;2023-08-06T06:26:24;7.63;;;5.10;;
4074;SDS011;2052;53.522;9.806;2023-08-06T06:28:51;21.63;;;6.10;;
4074;SDS011;2052;53.522;9.806;2023-08-06T06:31:17;9.30;;;6.03;;
4074;SDS011;2052;53.522;9.806;2023-08-06T06:33:44;12.40;;;6.10;;
4074;SDS011;2052;53.522;9.806;2023-08-06T06:36:11;8.43;;;5.80;;
4074;SDS011;2052;53.522;9.806;2023-08-06T06:38:38;10.70;;;5.80;;
4074;SDS011;2052;53.522;9.806;2023-08-06T06:41:05;8.37;;;5.03;;
4074;SDS011;2052;53.522;9.806;2023-08-06T06:43:32;7.47;;;5.87;;
4074;SDS011;2052;53.522;9.806;2023-08-06T06:45:59;11.20;;;5.97;;
4074;SDS011;2052;53.522;9.806;2023-08-06T06:48:26;7.77;;;5.63;;
4074;SDS011;2052;53.522;9.806;2023-08-06T06:50:53;8.07;;;5.63;;
4074;SDS011;2052;53.522;9.806;2023-08-06T06:53:20;10.53;;;5.57;;
4074;SDS011;2052;53.522;9.806;2023-08-06T06:55:48;8.20;;;5.90;;
4074;SDS011;2052;53.522;9.806;2023-08-06T06:58:15;11.43;;;6.73;;
4074;SDS011;2052;53.522;9.806;2023-08-06T07:00:43;8.23;;;4.87;;
4074;SDS011;2052;53.522;9.806;2023-08-06T07:03:11;7.97;;;5.00;;
4074;SDS011;2052;53.522;9.806;2023-08-06T07:05:37;9.30;;;5.50;;
4074;SDS011;2052;53.522;9.806;2023-08-06T07:08:04;9.67;;;6.10;;
4074;SDS011;2052;53.522;9.806;2023-08-06T07:10:30;6.73;;;4.80;;
4074;SDS011;2052;53.522;9.806;2023-08-06T07:12:58;8.30;;;5.63;;
4074;SDS011;2052;53.522;9.806;2023-08-06T07:15:25;8.47;;;5.37;;
4074;SDS011;2052;53.522;9.806;2023-08-06T07:17:56;6.97;;;5.60;;
4074;SDS011;2052;53.522;9.806;2023-08-06T07:20:23;10.17;;;5.03;;
4074;SDS011;2052;53.522;9.806;2023-08-06T07:22:49;9.47;;;5.73;;
4074;SDS011;2052;53.522;9.806;2023-08-06T07:25:16;5.70;;;5.10;;
4074;SDS011;2052;53.522;9.806;2023-08-06T07:27:43;8.03;;;5.07;;
4074;SDS011;2052;53.522;9.806;2023-08-06T07:30:10;7.30;;;5.27;;
4074;SDS011;2052;53.522;9.806;2023-08-06T07:32:37;7.53;;;5.07;;
4074;SDS011;2052;53.522;9.806;2023-08-06T07:35:07;13.90;;;5.87;;
4074;SDS011;2052;53.522;9.806;2023-08-06T07:37:37;9.20;;;5.53;;
4074;SDS011;2052;53.522;9.806;2023-08-06T07:40:08;7.23;;;4.53;;
4074;SDS011;2052;53.522;9.806;2023-08-06T07:42:36;11.07;;;5.63;;
4074;SDS011;2052;53.522;9.806;2023-08-06T07:45:03;9.67;;;5.47;;
4074;SDS011;2052;53.522;9.806;2023-08-06T07:47:31;12.73;;;5.57;;
4074;SDS011;2052;53.522;9.806;2023-08-06T07:49:58;9.57;;;5.57;;
4074;SDS011;2052;53.522;9.806;2023-08-06T07:52:29;8.27;;;5.60;;
4074;SDS011;2052;53.522;9.806;2023-08-06T07:54:56;6.90;;;4.97;;
4074;SDS011;2052;53.522;9.806;2023-08-06T07:57:23;6.80;;;4.93;;
4074;SDS011;2052;53.522;9.806;2023-08-06T07:59:50;7.40;;;5.13;;
4074;SDS011;2052;53.522;9.806;2023-08-06T08:02:18;5.93;;;4.67;;
4074;SDS011;2052;53.522;9.806;2023-08-06T08:04:59;7.77;;;5.03;;
4074;SDS011;2052;53.522;9.806;2023-08-06T08:07:28;8.43;;;5.73;;
4074;SDS011;2052;53.522;9.806;2023-08-06T08:09:55;8.33;;;4.93;;
4074;SDS011;2052;53.522;9.806;2023-08-06T08:12:22;8.17;;;5.50;;
4074;SDS011;2052;53.522;9.806;2023-08-06T08:14:49;13.87;;;5.90;;
4074;SDS011;2052;53.522;9.806;2023-08-06T08:17:15;7.73;;;5.00;;
4074;SDS011;2052;53.522;9.806;2023-08-06T08:19:43;8.37;;;5.33;;
4074;SDS011;2052;53.522;9.806;2023-08-06T08:22:10;8.17;;;5.37;;
4074;SDS011;2052;53.522;9.806;2023-08-06T08:24:38;6.73;;;4.70;;
4074;SDS011;2052;53.522;9.806;2023-08-06T08:27:04;7.60;;;5.07;;
4074;SDS011;2052;53.522;9.806;2023-08-06T08:29:31;8.17;;;5.20;;
4074;SDS011;2052;53.522;9.806;2023-08-06T08:31:58;8.40;;;5.67;;
4074;SDS011;2052;53.522;9.806;2023-08-06T08:34:25;8.50;;;5.80;;
4074;SDS011;2052;53.522;9.806;2023-08-06T08:36:51;9.20;;;5.20;;
4074;SDS011;2052;53.522;9.806;2023-08-06T08:39:18;7.07;;;5.40;;
4074;SDS011;2052;53.522;9.806;2023-08-06T08:41:46;13.07;;;5.37;;
4074;SDS011;2052;53.522;9.806;2023-08-06T08:44:12;7.23;;;5.40;;
4074;SDS011;2052;53.522;9.806;2023-08-06T08:46:42;10.13;;;5.83;;
4074;SDS011;2052;53.522;9.806;2023-08-06T08:49:09;7.00;;;5.30;;
4074;SDS011;2052;53.522;9.806;2023-08-06T08:51:37;8.20;;;5.87;;
4074;SDS011;2052;53.522;9.806;2023-08-06T08:54:05;6.80;;;5.07;;
4074;SDS011;2052;53.522;9.806;2023-08-06T08:56:33;12.80;;;6.57;;
4074;SDS011;2052;53.522;9.806;2023-08-06T08:59:02;8.83;;;5.60;;
4074;SDS011;2052;53.522;9.806;2023-08-06T09:01:28;9.40;;;6.00;;
4074;SDS011;2052;53.522;9.806;2023-08-06T09:03:55;9.13;;;6.30;;
4074;SDS011;2052;53.522;9.806;2023-08-06T09:06:23;9.00;;;5.10;;
4074;SDS011;2052;53.522;9.806;2023-08-06T09:08:54;8.27;;;5.97;;
4074;SDS011;2052;53.522;9.806;2023-08-06T09:11:23;8.90;;;5.47;;
4074;SDS011;2052;53.522;9.806;2023-08-06T09:13:49;5.20;;;4.70;;
4074;SDS011;2052;53.522;9.806;2023-08-06T09:16:18;7.13;;;5.03;;
4074;SDS011;2052;53.522;9.806;2023-08-06T09:18:45;10.50;;;5.13;;
4074;SDS011;2052;53.522;9.806;2023-08-06T09:21:13;8.03;;;5.93;;
4074;SDS011;2052;53.522;9.806;2023-08-06T09:23:41;8.37;;;5.17;;
4074;SDS011;2052;53.522;9.806;2023-08-06T09:26:09;9.30;;;5.60;;
4074;SDS011;2052;53.522;9.806;2023-08-06T09:28:38;9.47;;;5.30;;
4074;SDS011;2052;53.522;9.806;2023-08-06T09:31:07;8.33;;;5.20;;
4074;SDS011;2052;53.522;9.806;2023-08-06T09:33:37;6.80;;;5.40;;
4074;SDS011;2052;53.522;9.806;2023-08-06T09:36:07;11.23;;;6.47;;
4074;SDS011;2052;53.522;9.806;2023-08-06T09:38:37;10.13;;;6.23;;
4074;SDS011;2052;53.522;9.806;2023-08-06T09:41:05;11.40;;;6.63;;
4074;SDS011;2052;53.522;9.806;2023-08-06T09:43:38;12.73;;;7.40;;
4074;SDS011;2052;53.522;9.806;2023-08-06T09:46:12;8.30;;;6.30;;
4074;SDS011;2052;53.522;9.806;2023-08-06T09:48:45;9.60;;;5.53;;
4074;SDS011;2052;53.522;9.806;2023-08-06T09:51:12;8.03;;;5.70;;
4074;SDS011;2052;53.522;9.806;2023-08-06T09:53:39;6.93;;;5.30;;
4074;SDS011;2052;53.522;9.806;2023-08-06T09:56:06;6.07;;;4.80;;
4074;SDS011;2052;53.522;9.806;2023-08-06T09:58:34;7.10;;;5.50;;
4074;SDS011;2052;53.522;9.806;2023-08-06T10:01:03;8.30;;;6.07;;
4074;SDS011;2052;53.522;9.806;2023-08-06T10:03:33;8.00;;;5.40;;
4074;SDS011;2052;53.522;9.806;2023-08-06T10:08:53;8.03;;;5.97;;
4074;SDS011;2052;53.522;9.806;2023-08-06T10:11:19;8.63;;;5.80;;
4074;SDS011;2052;53.522;9.806;2023-08-06T10:13:50;8.73;;;5.47;;
4074;SDS011;2052;53.522;9.806;2023-08-06T10:16:19;6.60;;;5.17;;
4074;SDS011;2052;53.522;9.806;2023-08-06T10:18:47;11.13;;;5.17;;
4074;SDS011;2052;53.522;9.806;2023-08-06T10:21:15;11.00;;;5.67;;
4074;SDS011;2052;53.522;9.806;2023-08-06T10:23:43;9.97;;;5.60;;
4074;SDS011;2052;53.522;9.806;2023-08-06T10:26:10;8.77;;;5.67;;
4074;SDS011;2052;53.522;9.806;2023-08-06T10:28:37;7.77;;;5.70;;
4074;SDS011;2052;53.522;9.806;2023-08-06T10:31:04;9.73;;;5.60;;
4074;SDS011;2052;53.522;9.806;2023-08-06T10:33:41;9.47;;;5.10;;
4074;SDS011;2052;53.522;9.806;2023-08-06T10:36:09;7.73;;;5.60;;
4074;SDS011;2052;53.522;9.806;2023-08-06T10:38:44;6.50;;;5.07;;
4074;SDS011;2052;53.522;9.806;2023-08-06T10:41:16;6.30;;;5.20;;
4074;SDS011;2052;53.522;9.806;2023-08-06T10:43:48;9.20;;;5.53;;
4074;SDS011;2052;53.522;9.806;2023-08-06T10:46:22;13.30;;;5.33;;
4074;SDS011;2052;53.522;9.806;2023-08-06T10:48:49;6.90;;;4.80;;
4074;SDS011;2052;53.522;9.806;2023-08-06T10:51:21;8.20;;;4.70;;
4074;SDS011;2052;53.522;9.806;2023-08-06T10:53:55;5.90;;;4.47;;
4074;SDS011;2052;53.522;9.806;2023-08-06T10:56:24;6.47;;;4.50;;
4074;SDS011;2052;53.522;9.806;2023-08-06T10:58:53;6.70;;;4.40;;
4074;SDS011;2052;53.522;9.806;2023-08-06T11:01:21;4.90;;;4.10;;
4074;SDS011;2052;53.522;9.806;2023-08-06T11:03:48;10.10;;;5.33;;
4074;SDS011;2052;53.522;9.806;2023-08-06T11:06:18;6.73;;;5.20;;
4074;SDS011;2052;53.522;9.806;2023-08-06T11:08:47;9.67;;;5.70;;
4074;SDS011;2052;53.522;9.806;2023-08-06T11:11:16;6.23;;;4.97;;
4074;SDS011;2052;53.522;9.806;2023-08-06T11:13:45;6.57;;;4.67;;
4074;SDS011;2052;53.522;9.806;2023-08-06T11:16:12;7.60;;;5.30;;
4074;SDS011;2052;53.522;9.806;2023-08-06T11:18:39;8.03;;;5.63;;
4074;SDS011;2052;53.522;9.806;2023-08-06T11:21:06;7.10;;;5.53;;
4074;SDS011;2052;53.522;9.806;2023-08-06T11:23:33;6.00;;;5.20;;
4074;SDS011;2052;53.522;9.806;2023-08-06T11:26:01;8.53;;;5.20;;
4074;SDS011;2052;53.522;9.806;2023-08-06T11:28:29;7.53;;;5.20;;
4074;SDS011;2052;53.522;9.806;2023-08-06T11:30:56;6.63;;;5.63;;
4074;SDS011;2052;53.522;9.806;2023-08-06T11:33:27;9.47;;;5.97;;
4074;SDS011;2052;53.522;9.806;2023-08-06T11:35:54;6.93;;;6.00;;
4074;SDS011;2052;53.522;9.806;2023-08-06T11:38:22;7.80;;;6.00;;
4074;SDS011;2052;53.522;9.806;2023-08-06T11:40:50;8.87;;;5.50;;
4074;SDS011;2052;53.522;9.806;2023-08-06T11:43:17;7.30;;;5.70;;
4074;SDS011;2052;53.522;9.806;2023-08-06T11:45:47;6.53;;;5.07;;
4074;SDS011;2052;53.522;9.806;2023-08-06T11:48:14;7.90;;;5.80;;
4074;SDS011;2052;53.522;9.806;2023-08-06T11:50:41;16.53;;;7.30;;
4074;SDS011;2052;53.522;9.806;2023-08-06T11:53:11;8.57;;;4.90;;
4074;SDS011;2052;53.522;9.806;2023-08-06T11:55:39;6.87;;;5.23;;
4074;SDS011;2052;53.522;9.806;2023-08-06T11:58:05;8.73;;;6.10;;
4074;SDS011;2052;53.522;9.806;2023-08-06T12:00:32;6.73;;;5.10;;
4074;SDS011;2052;53.522;9.806;2023-08-06T12:03:01;7.40;;;5.63;;
4074;SDS011;2052;53.522;9.806;2023-08-06T12:05:31;7.70;;;5.23;;
4074;SDS011;2052;53.522;9.806;2023-08-06T12:07:59;10.87;;;6.10;;
4074;SDS011;2052;53.522;9.806;2023-08-06T12:10:27;8.70;;;6.00;;
4074;SDS011;2052;53.522;9.806;2023-08-06T12:12:55;6.63;;;5.40;;
4074;SDS011;2052;53.522;9.806;2023-08-06T12:15:22;8.93;;;5.27;;
4074;SDS011;2052;53.522;9.806;2023-08-06T12:17:49;6.30;;;5.07;;
4074;SDS011;2052;53.522;9.806;2023-08-06T12:20:17;11.90;;;5.03;;
4074;SDS011;2052;53.522;9.806;2023-08-06T12:22:44;7.70;;;5.77;;
4074;SDS011;2052;53.522;9.806;2023-08-06T12:25:11;6.30;;;5.30;;
4074;SDS011;2052;53.522;9.806;2023-08-06T12:27:39;8.07;;;4.90;;
4074;SDS011;2052;53.522;9.806;2023-08-06T12:30:07;6.00;;;5.30;;
4074;SDS011;2052;53.522;9.806;2023-08-06T12:32:35;6.00;;;5.40;;
4074;SDS011;2052;53.522;9.806;2023-08-06T12:35:04;9.27;;;5.00;;
4074;SDS011;2052;53.522;9.806;2023-08-06T12:37:33;8.83;;;5.20;;
4074;SDS011;2052;53.522;9.806;2023-08-06T12:40:00;8.80;;;5.20;;
4074;SDS011;2052;53.522;9.806;2023-08-06T12:42:27;6.33;;;5.27;;
4074;SDS011;2052;53.522;9.806;2023-08-06T12:44:59;6.80;;;5.47;;
4074;SDS011;2052;53.522;9.806;2023-08-06T12:47:25;6.70;;;5.60;;
4074;SDS011;2052;53.522;9.806;2023-08-06T12:49:52;8.30;;;5.30;;
4074;SDS011;2052;53.522;9.806;2023-08-06T12:52:18;5.80;;;4.80;;
4074;SDS011;2052;53.522;9.806;2023-08-06T12:54:47;8.23;;;5.00;;
4074;SDS011;2052;53.522;9.806;2023-08-06T12:57:14;6.87;;;5.17;;
4074;SDS011;2052;53.522;9.806;2023-08-06T12:59:42;6.53;;;5.00;;
4074;SDS011;2052;53.522;9.806;2023-08-06T13:02:11;6.63;;;5.80;;
4074;SDS011;2052;53.522;9.806;2023-08-06T13:04:38;7.23;;;5.60;;
4074;SDS011;2052;53.522;9.806;2023-08-06T13:07:05;7.87;;;5.90;;
4074;SDS011;2052;53.522;9.806;2023-08-06T13:09:31;6.10;;;5.10;;
4074;SDS011;2052;53.522;9.806;2023-08-06T13:11:59;9.37;;;5.37;;
4074;SDS011;2052;53.522;9.806;2023-08-06T13:14:30;8.07;;;5.63;;
4074;SDS011;2052;53.522;9.806;2023-08-06T13:16:58;5.33;;;4.60;;
4074;SDS011;2052;53.522;9.806;2023-08-06T13:19:25;7.93;;;5.30;;
4074;SDS011;2052;53.522;9.806;2023-08-06T13:21:58;7.67;;;4.80;;
4074;SDS011;2052;53.522;9.806;2023-08-06T13:24:26;6.43;;;4.80;;
4074;SDS011;2052;53.522;9.806;2023-08-06T13:26:53;12.13;;;5.10;;
4074;SDS011;2052;53.522;9.806;2023-08-06T13:29:21;5.03;;;4.53;;
4074;SDS011;2052;53.522;9.806;2023-08-06T13:31:48;5.57;;;5.07;;
4074;SDS011;2052;53.522;9.806;2023-08-06T13:34:14;4.97;;;4.47;;
4074;SDS011;2052;53.522;9.806;2023-08-06T13:36:42;6.00;;;4.77;;
4074;SDS011;2052;53.522;9.806;2023-08-06T13:39:15;5.27;;;4.53;;
4074;SDS011;2052;53.522;9.806;2023-08-06T13:41:44;6.20;;;4.83;;
4074;SDS011;2052;53.522;9.806;2023-08-06T13:44:11;4.97;;;4.50;;
4074;SDS011;2052;53.522;9.806;2023-08-06T13:46:43;6.00;;;4.97;;
4074;SDS011;2052;53.522;9.806;2023-08-06T13:49:10;7.93;;;5.00;;
4074;SDS011;2052;53.522;9.806;2023-08-06T13:51:36;7.20;;;5.10;;
4074;SDS011;2052;53.522;9.806;2023-08-06T13:54:03;5.63;;;5.03;;
4074;SDS011;2052;53.522;9.806;2023-08-06T13:56:32;6.30;;;4.83;;
4074;SDS011;2052;53.522;9.806;2023-08-06T13:58:59;5.30;;;4.77;;
4074;SDS011;2052;53.522;9.806;2023-08-06T14:01:26;7.73;;;5.80;;
4074;SDS011;2052;53.522;9.806;2023-08-06T14:03:57;6.53;;;5.10;;
4074;SDS011;2052;53.522;9.806;2023-08-06T14:06:23;6.43;;;4.20;;
4074;SDS011;2052;53.522;9.806;2023-08-06T14:08:52;5.50;;;4.97;;
4074;SDS011;2052;53.522;9.806;2023-08-06T14:11:22;6.70;;;5.27;;
4074;SDS011;2052;53.522;9.806;2023-08-06T14:13:50;12.73;;;5.13;;
4074;SDS011;2052;53.522;9.806;2023-08-06T14:16:17;7.67;;;4.83;;
4074;SDS011;2052;53.522;9.806;2023-08-06T14:18:44;5.70;;;5.10;;
4074;SDS011;2052;53.522;9.806;2023-08-06T14:21:17;6.20;;;4.70;;
4074;SDS011;2052;53.522;9.806;2023-08-06T14:23:44;6.00;;;4.37;;
4074;SDS011;2052;53.522;9.806;2023-08-06T14:26:11;5.87;;;4.37;;
4074;SDS011;2052;53.522;9.806;2023-08-06T14:28:40;9.27;;;5.07;;
4074;SDS011;2052;53.522;9.806;2023-08-06T14:31:06;6.20;;;4.83;;
4074;SDS011;2052;53.522;9.806;2023-08-06T14:33:35;8.97;;;4.70;;
4074;SDS011;2052;53.522;9.806;2023-08-06T14:36:02;6.90;;;4.90;;
4074;SDS011;2052;53.522;9.806;2023-08-06T14:38:30;7.73;;;5.20;;
4074;SDS011;2052;53.522;9.806;2023-08-06T14:40:57;7.07;;;4.53;;
4074;SDS011;2052;53.522;9.806;2023-08-06T14:43:24;5.93;;;4.60;;
4074;SDS011;2052;53.522;9.806;2023-08-06T14:45:50;9.73;;;5.37;;
4074;SDS011;2052;53.522;9.806;2023-08-06T14:48:17;13.70;;;6.30;;
4074;SDS011;2052;53.522;9.806;2023-08-06T14:50:43;10.40;;;5.60;;
4074;SDS011;2052;53.522;9.806;2023-08-06T14:53:21;6.23;;;4.87;;
4074;SDS011;2052;53.522;9.806;2023-08-06T14:55:50;9.27;;;5.13;;
4074;SDS011;2052;53.522;9.806;2023-08-06T14:58:16;12.00;;;6.50;;
4074;SDS011;2052;53.522;9.806;2023-08-06T15:00:44;6.73;;;5.13;;
4074;SDS011;2052;53.522;9.806;2023-08-06T15:03:11;9.00;;;4.77;;
4074;SDS011;2052;53.522;9.806;2023-08-06T15:05:38;15.33;;;5.47;;
4074;SDS011;2052;53.522;9.806;2023-08-06T15:08:04;6.80;;;4.80;;
4074;SDS011;2052;53.522;9.806;2023-08-06T15:10:34;9.17;;;5.30;;
4074;SDS011;2052;53.522;9.806;2023-08-06T15:13:02;7.10;;;4.80;;
4074;SDS011;2052;53.522;9.806;2023-08-06T15:15:30;7.17;;;4.20;;
4074;SDS011;2052;53.522;9.806;2023-08-06T15:17:57;7.03;;;5.10;;
4074;SDS011;2052;53.522;9.806;2023-08-06T15:20:24;9.03;;;5.20;;
4074;SDS011;2052;53.522;9.806;2023-08-06T15:22:51;8.87;;;5.30;;